sensor_id;sensor_type;location;lat;lon;timestamp;P1;durP1;ratioP1;P2;durP2;ratioP2
8040;SDS011;4063;48.140;10.250;2023-10-08T00:02:15;7.90;;;4.70;;
8040;SDS011;4063;48.140;10.250;2023-10-08T00:04:47;7.07;;;4.80;;
8040;SDS011;4063;48.140;10.250;2023-10-08T00:07:15;6.75;;;4.47;;
8040;SDS011;4063;48.140;10.250;2023-10-08T00:09:46;7.22;;;5.25;;
8040;SDS011;4063;48.140;10.250;2023-10-08T00:12:12;6.90;;;4.45;;
8040;SDS011;4063;48.140;10.250;2023-10-08T00:14:38;6.93;;;4.85;;
8040;SDS011;4063;48.140;10.250;2023-10-08T00:17:10;8.98;;;4.97;;
8040;SDS011;4063;48.140;10.250;2023-10-08T00:19:36;7.32;;;4.78;;
8040;SDS011;4063;48.140;10.250;2023-10-08T00:22:03;14.68;;;4.65;;
8040;SDS011;4063;48.140;10.250;2023-10-08T00:24:35;7.72;;;4.97;;
8040;SDS011;4063;48.140;10.250;2023-10-08T00:27:02;9.55;;;4.55;;
8040;SDS011;4063;48.140;10.250;2023-10-08T00:29:31;7.22;;;4.60;;
8040;SDS011;4063;48.140;10.250;2023-10-08T00:31:57;5.90;;;4.45;;
8040;SDS011;4063;48.140;10.250;2023-10-08T00:34:24;8.73;;;4.15;;
8040;SDS011;4063;48.140;10.250;2023-10-08T00:36:52;8.20;;;4.53;;
8040;SDS011;4063;48.140;10.250;2023-10-08T00:39:18;6.25;;;4.50;;
8040;SDS011;4063;48.140;10.250;2023-10-08T00:41:51;6.60;;;4.70;;
8040;SDS011;4063;48.140;10.250;2023-10-08T00:44:23;7.93;;;4.80;;
8040;SDS011;4063;48.140;10.250;2023-10-08T00:46:55;6.90;;;3.90;;
8040;SDS011;4063;48.140;10.250;2023-10-08T00:49:22;5.97;;;4.35;;
8040;SDS011;4063;48.140;10.250;2023-10-08T00:51:53;6.38;;;4.45;;
8040;SDS011;4063;48.140;10.250;2023-10-08T00:54:45;6.47;;;4.15;;
8040;SDS011;4063;48.140;10.250;2023-10-08T00:57:30;8.35;;;4.55;;
8040;SDS011;4063;48.140;10.250;2023-10-08T00:59:59;6.20;;;4.72;;
8040;SDS011;4063;48.140;10.250;2023-10-08T01:02:26;8.35;;;4.25;;
8040;SDS011;4063;48.140;10.250;2023-10-08T01:04:56;6.65;;;4.82;;
8040;SDS011;4063;48.140;10.250;2023-10-08T01:07:22;7.15;;;4.80;;
8040;SDS011;4063;48.140;10.250;2023-10-08T01:09:49;9.75;;;3.90;;
8040;SDS011;4063;48.140;10.250;2023-10-08T01:12:17;5.25;;;4.30;;
8040;SDS011;4063;48.140;10.250;2023-10-08T01:15:03;7.57;;;4.95;;
8040;SDS011;4063;48.140;10.250;2023-10-08T01:17:52;8.52;;;4.55;;
8040;SDS011;4063;48.140;10.250;2023-10-08T01:20:37;7.05;;;4.13;;
8040;SDS011;4063;48.140;10.250;2023-10-08T01:23:06;6.50;;;4.47;;
8040;SDS011;4063;48.140;10.250;2023-10-08T01:25:38;5.80;;;4.13;;
8040;SDS011;4063;48.140;10.250;2023-10-08T01:28:05;6.25;;;4.18;;
8040;SDS011;4063;48.140;10.250;2023-10-08T01:30:43;6.90;;;4.45;;
8040;SDS011;4063;48.140;10.250;2023-10-08T01:33:13;8.43;;;4.57;;
8040;SDS011;4063;48.140;10.250;2023-10-08T01:35:41;10.07;;;5.20;;
8040;SDS011;4063;48.140;10.250;2023-10-08T01:38:07;8.10;;;4.85;;
8040;SDS011;4063;48.140;10.250;2023-10-08T01:40:39;10.40;;;4.85;;
8040;SDS011;4063;48.140;10.250;2023-10-08T01:43:05;6.30;;;4.00;;
8040;SDS011;4063;48.140;10.250;2023-10-08T01:45:35;6.93;;;4.70;;
8040;SDS011;4063;48.140;10.250;2023-10-08T01:48:01;5.95;;;4.25;;
8040;SDS011;4063;48.140;10.250;2023-10-08T01:50:27;6.65;;;3.92;;
8040;SDS011;4063;48.140;10.250;2023-10-08T01:52:54;7.68;;;4.38;;
8040;SDS011;4063;48.140;10.250;2023-10-08T01:55:20;5.10;;;3.85;;
8040;SDS011;4063;48.140;10.250;2023-10-08T01:57:48;6.03;;;4.45;;
8040;SDS011;4063;48.140;10.250;2023-10-08T02:00:16;6.50;;;4.50;;
8040;SDS011;4063;48.140;10.250;2023-10-08T02:02:49;9.75;;;4.15;;
8040;SDS011;4063;48.140;10.250;2023-10-08T02:05:15;6.35;;;3.75;;
8040;SDS011;4063;48.140;10.250;2023-10-08T02:07:43;7.10;;;4.30;;
8040;SDS011;4063;48.140;10.250;2023-10-08T02:10:10;6.05;;;4.43;;
8040;SDS011;4063;48.140;10.250;2023-10-08T02:12:38;8.63;;;4.53;;
8040;SDS011;4063;48.140;10.250;2023-10-08T02:15:05;6.95;;;3.90;;
8040;SDS011;4063;48.140;10.250;2023-10-08T02:17:32;4.90;;;3.85;;
8040;SDS011;4063;48.140;10.250;2023-10-08T02:19:58;5.53;;;4.07;;
8040;SDS011;4063;48.140;10.250;2023-10-08T02:22:24;6.18;;;4.47;;
8040;SDS011;4063;48.140;10.250;2023-10-08T02:24:50;5.70;;;4.00;;
8040;SDS011;4063;48.140;10.250;2023-10-08T02:27:18;7.32;;;3.97;;
8040;SDS011;4063;48.140;10.250;2023-10-08T02:29:44;7.25;;;4.20;;
8040;SDS011;4063;48.140;10.250;2023-10-08T02:32:10;6.90;;;3.92;;
8040;SDS011;4063;48.140;10.250;2023-10-08T02:34:36;6.68;;;4.13;;
8040;SDS011;4063;48.140;10.250;2023-10-08T02:37:02;7.15;;;3.78;;
8040;SDS011;4063;48.140;10.250;2023-10-08T02:39:28;6.75;;;4.60;;
8040;SDS011;4063;48.140;10.250;2023-10-08T02:41:56;6.35;;;3.88;;
8040;SDS011;4063;48.140;10.250;2023-10-08T02:44:24;5.93;;;4.05;;
8040;SDS011;4063;48.140;10.250;2023-10-08T02:46:51;6.95;;;4.32;;
8040;SDS011;4063;48.140;10.250;2023-10-08T02:49:18;10.55;;;4.07;;
8040;SDS011;4063;48.140;10.250;2023-10-08T02:51:48;7.57;;;4.53;;
8040;SDS011;4063;48.140;10.250;2023-10-08T02:54:15;11.13;;;4.55;;
8040;SDS011;4063;48.140;10.250;2023-10-08T02:56:52;6.55;;;4.68;;
8040;SDS011;4063;48.140;10.250;2023-10-08T02:59:28;8.18;;;4.57;;
8040;SDS011;4063;48.140;10.250;2023-10-08T03:02:03;7.35;;;4.70;;
8040;SDS011;4063;48.140;10.250;2023-10-08T03:04:30;5.93;;;4.13;;
8040;SDS011;4063;48.140;10.250;2023-10-08T03:06:56;5.85;;;4.10;;
8040;SDS011;4063;48.140;10.250;2023-10-08T03:09:22;7.38;;;4.20;;
8040;SDS011;4063;48.140;10.250;2023-10-08T03:11:50;6.53;;;4.70;;
8040;SDS011;4063;48.140;10.250;2023-10-08T03:14:18;6.90;;;4.50;;
8040;SDS011;4063;48.140;10.250;2023-10-08T03:16:50;7.93;;;4.03;;
8040;SDS011;4063;48.140;10.250;2023-10-08T03:19:18;7.43;;;4.00;;
8040;SDS011;4063;48.140;10.250;2023-10-08T03:21:47;8.48;;;4.47;;
8040;SDS011;4063;48.140;10.250;2023-10-08T03:24:17;6.25;;;3.72;;
8040;SDS011;4063;48.140;10.250;2023-10-08T03:27:03;7.25;;;4.70;;
8040;SDS011;4063;48.140;10.250;2023-10-08T03:29:33;6.95;;;3.92;;
8040;SDS011;4063;48.140;10.250;2023-10-08T03:32:05;6.22;;;3.53;;
8040;SDS011;4063;48.140;10.250;2023-10-08T03:34:31;7.25;;;4.25;;
8040;SDS011;4063;48.140;10.250;2023-10-08T03:36:59;10.02;;;4.57;;
8040;SDS011;4063;48.140;10.250;2023-10-08T03:39:30;8.52;;;4.65;;
8040;SDS011;4063;48.140;10.250;2023-10-08T03:42:18;8.60;;;4.55;;
8040;SDS011;4063;48.140;10.250;2023-10-08T03:44:45;6.53;;;4.43;;
8040;SDS011;4063;48.140;10.250;2023-10-08T03:47:16;8.40;;;3.92;;
8040;SDS011;4063;48.140;10.250;2023-10-08T03:49:43;6.78;;;4.63;;
8040;SDS011;4063;48.140;10.250;2023-10-08T03:52:11;7.05;;;4.05;;
8040;SDS011;4063;48.140;10.250;2023-10-08T03:54:38;7.03;;;4.68;;
8040;SDS011;4063;48.140;10.250;2023-10-08T03:57:13;8.77;;;4.40;;
8040;SDS011;4063;48.140;10.250;2023-10-08T03:59:40;8.55;;;4.20;;
8040;SDS011;4063;48.140;10.250;2023-10-08T04:02:07;9.65;;;4.00;;
8040;SDS011;4063;48.140;10.250;2023-10-08T04:04:53;9.40;;;4.85;;
8040;SDS011;4063;48.140;10.250;2023-10-08T04:07:23;7.60;;;3.97;;
8040;SDS011;4063;48.140;10.250;2023-10-08T04:09:51;6.07;;;3.90;;
8040;SDS011;4063;48.140;10.250;2023-10-08T04:12:30;8.90;;;4.72;;
8040;SDS011;4063;48.140;10.250;2023-10-08T04:15:00;5.80;;;3.65;;
8040;SDS011;4063;48.140;10.250;2023-10-08T04:17:26;6.57;;;4.28;;
8040;SDS011;4063;48.140;10.250;2023-10-08T04:19:52;11.35;;;4.53;;
8040;SDS011;4063;48.140;10.250;2023-10-08T04:22:18;8.13;;;4.35;;
8040;SDS011;4063;48.140;10.250;2023-10-08T04:24:44;6.75;;;4.28;;
8040;SDS011;4063;48.140;10.250;2023-10-08T04:27:10;6.82;;;3.78;;
8040;SDS011;4063;48.140;10.250;2023-10-08T04:29:36;9.07;;;3.80;;
8040;SDS011;4063;48.140;10.250;2023-10-08T04:32:03;7.90;;;4.28;;
8040;SDS011;4063;48.140;10.250;2023-10-08T04:34:46;9.63;;;4.00;;
8040;SDS011;4063;48.140;10.250;2023-10-08T04:37:12;6.60;;;4.13;;
8040;SDS011;4063;48.140;10.250;2023-10-08T04:39:39;5.05;;;3.88;;
8040;SDS011;4063;48.140;10.250;2023-10-08T04:42:06;6.38;;;3.67;;
8040;SDS011;4063;48.140;10.250;2023-10-08T04:44:39;8.10;;;3.63;;
8040;SDS011;4063;48.140;10.250;2023-10-08T04:47:09;7.50;;;4.22;;
8040;SDS011;4063;48.140;10.250;2023-10-08T04:49:37;5.45;;;4.10;;
8040;SDS011;4063;48.140;10.250;2023-10-08T04:52:10;12.90;;;3.80;;
8040;SDS011;4063;48.140;10.250;2023-10-08T04:54:40;8.88;;;4.43;;
8040;SDS011;4063;48.140;10.250;2023-10-08T04:57:07;6.35;;;3.97;;
8040;SDS011;4063;48.140;10.250;2023-10-08T04:59:40;6.25;;;4.03;;
8040;SDS011;4063;48.140;10.250;2023-10-08T05:02:06;8.63;;;4.13;;
8040;SDS011;4063;48.140;10.250;2023-10-08T05:04:48;6.07;;;3.97;;
8040;SDS011;4063;48.140;10.250;2023-10-08T05:07:17;5.50;;;4.00;;
8040;SDS011;4063;48.140;10.250;2023-10-08T05:09:52;9.20;;;4.32;;
8040;SDS011;4063;48.140;10.250;2023-10-08T05:12:30;8.07;;;4.53;;
8040;SDS011;4063;48.140;10.250;2023-10-08T05:15:02;8.88;;;4.78;;
8040;SDS011;4063;48.140;10.250;2023-10-08T05:17:40;7.57;;;4.78;;
8040;SDS011;4063;48.140;10.250;2023-10-08T05:20:16;8.90;;;4.50;;
8040;SDS011;4063;48.140;10.250;2023-10-08T05:22:55;7.70;;;4.38;;
8040;SDS011;4063;48.140;10.250;2023-10-08T05:25:31;8.63;;;3.80;;
8040;SDS011;4063;48.140;10.250;2023-10-08T05:28:22;6.85;;;3.58;;
8040;SDS011;4063;48.140;10.250;2023-10-08T05:30:52;6.03;;;3.97;;
8040;SDS011;4063;48.140;10.250;2023-10-08T05:33:46;6.47;;;3.90;;
8040;SDS011;4063;48.140;10.250;2023-10-08T05:36:40;9.63;;;4.63;;
8040;SDS011;4063;48.140;10.250;2023-10-08T05:39:26;7.57;;;3.80;;
8040;SDS011;4063;48.140;10.250;2023-10-08T05:42:05;7.75;;;3.60;;
8040;SDS011;4063;48.140;10.250;2023-10-08T05:44:56;5.60;;;3.85;;
8040;SDS011;4063;48.140;10.250;2023-10-08T05:47:35;7.43;;;4.03;;
8040;SDS011;4063;48.140;10.250;2023-10-08T05:50:01;7.53;;;4.00;;
8040;SDS011;4063;48.140;10.250;2023-10-08T05:52:43;6.60;;;4.03;;
8040;SDS011;4063;48.140;10.250;2023-10-08T05:55:18;8.02;;;3.85;;
8040;SDS011;4063;48.140;10.250;2023-10-08T05:58:00;9.60;;;4.10;;
8040;SDS011;4063;48.140;10.250;2023-10-08T06:00:50;7.68;;;3.80;;
8040;SDS011;4063;48.140;10.250;2023-10-08T06:03:51;7.55;;;4.18;;
8040;SDS011;4063;48.140;10.250;2023-10-08T06:06:36;9.48;;;3.70;;
8040;SDS011;4063;48.140;10.250;2023-10-08T06:09:08;8.27;;;4.28;;
8040;SDS011;4063;48.140;10.250;2023-10-08T06:11:37;8.98;;;4.03;;
8040;SDS011;4063;48.140;10.250;2023-10-08T06:14:10;7.75;;;3.90;;
8040;SDS011;4063;48.140;10.250;2023-10-08T06:16:42;8.20;;;4.35;;
8040;SDS011;4063;48.140;10.250;2023-10-08T06:19:12;6.25;;;3.75;;
8040;SDS011;4063;48.140;10.250;2023-10-08T06:21:38;6.30;;;3.88;;
8040;SDS011;4063;48.140;10.250;2023-10-08T06:24:05;10.25;;;4.53;;
8040;SDS011;4063;48.140;10.250;2023-10-08T06:26:35;9.82;;;4.10;;
8040;SDS011;4063;48.140;10.250;2023-10-08T06:29:03;6.47;;;4.22;;
8040;SDS011;4063;48.140;10.250;2023-10-08T06:31:43;12.23;;;4.13;;
8040;SDS011;4063;48.140;10.250;2023-10-08T06:34:15;7.32;;;3.92;;
8040;SDS011;4063;48.140;10.250;2023-10-08T06:36:41;9.38;;;3.92;;
8040;SDS011;4063;48.140;10.250;2023-10-08T06:39:07;5.97;;;3.95;;
8040;SDS011;4063;48.140;10.250;2023-10-08T06:41:37;8.45;;;3.75;;
8040;SDS011;4063;48.140;10.250;2023-10-08T06:44:03;9.38;;;4.53;;
8040;SDS011;4063;48.140;10.250;2023-10-08T06:46:39;13.93;;;8.68;;
8040;SDS011;4063;48.140;10.250;2023-10-08T06:49:06;22.77;;;12.18;;
8040;SDS011;4063;48.140;10.250;2023-10-08T06:51:36;19.25;;;12.15;;
8040;SDS011;4063;48.140;10.250;2023-10-08T06:54:02;16.38;;;10.68;;
8040;SDS011;4063;48.140;10.250;2023-10-08T06:56:29;10.45;;;6.85;;
8040;SDS011;4063;48.140;10.250;2023-10-08T06:58:56;7.75;;;4.75;;
8040;SDS011;4063;48.140;10.250;2023-10-08T07:01:24;7.03;;;4.80;;
8040;SDS011;4063;48.140;10.250;2023-10-08T07:03:54;9.57;;;4.35;;
8040;SDS011;4063;48.140;10.250;2023-10-08T07:06:28;6.35;;;3.67;;
8040;SDS011;4063;48.140;10.250;2023-10-08T07:08:59;7.25;;;4.15;;
8040;SDS011;4063;48.140;10.250;2023-10-08T07:11:29;7.20;;;4.07;;
8040;SDS011;4063;48.140;10.250;2023-10-08T07:13:56;8.20;;;3.80;;
8040;SDS011;4063;48.140;10.250;2023-10-08T07:16:22;9.20;;;4.18;;
8040;SDS011;4063;48.140;10.250;2023-10-08T07:18:48;14.07;;;4.68;;
8040;SDS011;4063;48.140;10.250;2023-10-08T07:21:18;5.60;;;3.33;;
8040;SDS011;4063;48.140;10.250;2023-10-08T07:23:48;9.30;;;4.10;;
8040;SDS011;4063;48.140;10.250;2023-10-08T07:26:29;8.48;;;4.10;;
8040;SDS011;4063;48.140;10.250;2023-10-08T07:29:02;8.48;;;4.07;;
8040;SDS011;4063;48.140;10.250;2023-10-08T07:31:34;8.38;;;3.50;;
8040;SDS011;4063;48.140;10.250;2023-10-08T07:34:01;8.45;;;3.72;;
8040;SDS011;4063;48.140;10.250;2023-10-08T07:36:46;9.95;;;3.53;;
8040;SDS011;4063;48.140;10.250;2023-10-08T07:39:16;9.48;;;4.18;;
8040;SDS011;4063;48.140;10.250;2023-10-08T07:41:54;13.00;;;3.75;;
8040;SDS011;4063;48.140;10.250;2023-10-08T07:44:23;13.85;;;4.05;;
8040;SDS011;4063;48.140;10.250;2023-10-08T07:47:01;9.50;;;4.20;;
8040;SDS011;4063;48.140;10.250;2023-10-08T07:49:30;8.30;;;3.60;;
8040;SDS011;4063;48.140;10.250;2023-10-08T07:51:59;5.68;;;3.90;;
8040;SDS011;4063;48.140;10.250;2023-10-08T07:54:26;6.40;;;3.72;;
8040;SDS011;4063;48.140;10.250;2023-10-08T07:56:56;7.63;;;3.75;;
8040;SDS011;4063;48.140;10.250;2023-10-08T07:59:33;11.85;;;4.18;;
8040;SDS011;4063;48.140;10.250;2023-10-08T08:02:03;9.48;;;3.95;;
8040;SDS011;4063;48.140;10.250;2023-10-08T08:04:34;8.98;;;4.45;;
8040;SDS011;4063;48.140;10.250;2023-10-08T08:07:01;8.95;;;3.83;;
8040;SDS011;4063;48.140;10.250;2023-10-08T08:09:29;11.73;;;4.03;;
8040;SDS011;4063;48.140;10.250;2023-10-08T08:11:55;7.72;;;4.28;;
8040;SDS011;4063;48.140;10.250;2023-10-08T08:14:22;8.48;;;4.05;;
8040;SDS011;4063;48.140;10.250;2023-10-08T08:16:53;9.60;;;4.38;;
8040;SDS011;4063;48.140;10.250;2023-10-08T08:19:19;6.75;;;4.15;;
8040;SDS011;4063;48.140;10.250;2023-10-08T08:21:49;8.00;;;3.97;;
8040;SDS011;4063;48.140;10.250;2023-10-08T08:24:17;13.82;;;3.85;;
8040;SDS011;4063;48.140;10.250;2023-10-08T08:26:56;8.55;;;4.18;;
8040;SDS011;4063;48.140;10.250;2023-10-08T08:29:36;9.15;;;4.10;;
8040;SDS011;4063;48.140;10.250;2023-10-08T08:32:12;7.18;;;4.32;;
8040;SDS011;4063;48.140;10.250;2023-10-08T08:34:43;11.80;;;4.15;;
8040;SDS011;4063;48.140;10.250;2023-10-08T08:37:12;8.23;;;3.95;;
8040;SDS011;4063;48.140;10.250;2023-10-08T08:39:38;10.52;;;3.95;;
8040;SDS011;4063;48.140;10.250;2023-10-08T08:42:06;11.00;;;4.18;;
8040;SDS011;4063;48.140;10.250;2023-10-08T08:44:33;8.00;;;4.05;;
8040;SDS011;4063;48.140;10.250;2023-10-08T08:47:04;7.88;;;3.63;;
8040;SDS011;4063;48.140;10.250;2023-10-08T08:49:35;8.25;;;3.95;;
8040;SDS011;4063;48.140;10.250;2023-10-08T08:52:02;10.27;;;3.75;;
8040;SDS011;4063;48.140;10.250;2023-10-08T08:54:29;7.00;;;4.32;;
8040;SDS011;4063;48.140;10.250;2023-10-08T08:56:58;8.10;;;4.18;;
8040;SDS011;4063;48.140;10.250;2023-10-08T08:59:25;8.02;;;4.10;;
8040;SDS011;4063;48.140;10.250;2023-10-08T09:01:55;7.72;;;3.58;;
8040;SDS011;4063;48.140;10.250;2023-10-08T09:04:28;7.75;;;4.25;;
8040;SDS011;4063;48.140;10.250;2023-10-08T09:06:55;10.25;;;3.75;;
8040;SDS011;4063;48.140;10.250;2023-10-08T09:09:21;7.30;;;3.92;;
8040;SDS011;4063;48.140;10.250;2023-10-08T09:11:48;8.00;;;3.75;;
8040;SDS011;4063;48.140;10.250;2023-10-08T09:14:17;6.80;;;3.78;;
8040;SDS011;4063;48.140;10.250;2023-10-08T09:16:43;8.23;;;4.05;;
8040;SDS011;4063;48.140;10.250;2023-10-08T09:19:09;7.10;;;3.75;;
8040;SDS011;4063;48.140;10.250;2023-10-08T09:21:40;6.97;;;4.07;;
8040;SDS011;4063;48.140;10.250;2023-10-08T09:24:06;8.38;;;3.50;;
8040;SDS011;4063;48.140;10.250;2023-10-08T09:26:36;7.85;;;3.45;;
8040;SDS011;4063;48.140;10.250;2023-10-08T09:29:05;10.85;;;4.45;;
8040;SDS011;4063;48.140;10.250;2023-10-08T09:31:33;12.98;;;4.38;;
8040;SDS011;4063;48.140;10.250;2023-10-08T09:34:00;6.70;;;3.55;;
8040;SDS011;4063;48.140;10.250;2023-10-08T09:36:27;6.50;;;3.78;;
8040;SDS011;4063;48.140;10.250;2023-10-08T09:39:00;8.27;;;4.40;;
8040;SDS011;4063;48.140;10.250;2023-10-08T09:41:29;7.50;;;4.20;;
8040;SDS011;4063;48.140;10.250;2023-10-08T09:43:56;8.40;;;4.43;;
8040;SDS011;4063;48.140;10.250;2023-10-08T09:46:26;6.55;;;3.70;;
8040;SDS011;4063;48.140;10.250;2023-10-08T09:48:53;7.28;;;4.00;;
8040;SDS011;4063;48.140;10.250;2023-10-08T09:51:21;8.52;;;4.07;;
8040;SDS011;4063;48.140;10.250;2023-10-08T09:56:16;9.25;;;4.55;;
8040;SDS011;4063;48.140;10.250;2023-10-08T09:58:44;9.32;;;3.67;;
8040;SDS011;4063;48.140;10.250;2023-10-08T10:01:14;8.32;;;4.53;;
8040;SDS011;4063;48.140;10.250;2023-10-08T10:03:41;6.95;;;3.90;;
8040;SDS011;4063;48.140;10.250;2023-10-08T10:06:11;7.05;;;4.28;;
8040;SDS011;4063;48.140;10.250;2023-10-08T10:08:37;11.38;;;4.20;;
8040;SDS011;4063;48.140;10.250;2023-10-08T10:11:03;10.27;;;4.40;;
8040;SDS011;4063;48.140;10.250;2023-10-08T10:13:34;7.63;;;3.72;;
8040;SDS011;4063;48.140;10.250;2023-10-08T10:16:04;8.13;;;4.05;;
8040;SDS011;4063;48.140;10.250;2023-10-08T10:18:33;5.22;;;3.80;;
8040;SDS011;4063;48.140;10.250;2023-10-08T10:21:00;11.20;;;4.70;;
8040;SDS011;4063;48.140;10.250;2023-10-08T10:23:47;9.68;;;4.32;;
8040;SDS011;4063;48.140;10.250;2023-10-08T10:26:34;16.13;;;4.35;;
8040;SDS011;4063;48.140;10.250;2023-10-08T10:31:44;9.05;;;4.47;;
8040;SDS011;4063;48.140;10.250;2023-10-08T10:34:19;9.55;;;4.22;;
8040;SDS011;4063;48.140;10.250;2023-10-08T10:36:46;6.45;;;3.80;;
8040;SDS011;4063;48.140;10.250;2023-10-08T10:39:20;10.52;;;3.58;;
8040;SDS011;4063;48.140;10.250;2023-10-08T10:42:01;10.60;;;4.60;;
8040;SDS011;4063;48.140;10.250;2023-10-08T10:44:45;10.63;;;4.53;;
8040;SDS011;4063;48.140;10.250;2023-10-08T10:47:14;7.22;;;3.78;;
8040;SDS011;4063;48.140;10.250;2023-10-08T10:49:40;8.60;;;3.97;;
8040;SDS011;4063;48.140;10.250;2023-10-08T10:52:19;9.45;;;3.80;;
8040;SDS011;4063;48.140;10.250;2023-10-08T10:55:06;8.65;;;4.00;;
8040;SDS011;4063;48.140;10.250;2023-10-08T10:57:41;8.02;;;4.15;;
8040;SDS011;4063;48.140;10.250;2023-10-08T11:00:08;6.93;;;3.92;;
8040;SDS011;4063;48.140;10.250;2023-10-08T11:02:53;6.13;;;3.53;;
8040;SDS011;4063;48.140;10.250;2023-10-08T11:05:24;8.55;;;4.10;;
8040;SDS011;4063;48.140;10.250;2023-10-08T11:07:54;12.35;;;4.07;;
8040;SDS011;4063;48.140;10.250;2023-10-08T11:10:25;7.68;;;3.45;;
8040;SDS011;4063;48.140;10.250;2023-10-08T11:12:53;10.90;;;4.88;;
8040;SDS011;4063;48.140;10.250;2023-10-08T11:15:19;8.35;;;3.70;;
8040;SDS011;4063;48.140;10.250;2023-10-08T11:17:48;11.30;;;3.95;;
8040;SDS011;4063;48.140;10.250;2023-10-08T11:20:27;14.10;;;4.22;;
8040;SDS011;4063;48.140;10.250;2023-10-08T11:22:53;9.25;;;4.07;;
8040;SDS011;4063;48.140;10.250;2023-10-08T11:25:20;10.48;;;4.13;;
8040;SDS011;4063;48.140;10.250;2023-10-08T11:27:48;9.32;;;4.30;;
8040;SDS011;4063;48.140;10.250;2023-10-08T11:30:14;10.35;;;4.60;;
8040;SDS011;4063;48.140;10.250;2023-10-08T11:32:42;9.15;;;4.28;;
8040;SDS011;4063;48.140;10.250;2023-10-08T11:35:14;17.25;;;4.35;;
8040;SDS011;4063;48.140;10.250;2023-10-08T11:37:44;12.05;;;4.15;;
8040;SDS011;4063;48.140;10.250;2023-10-08T11:40:21;10.98;;;4.00;;
8040;SDS011;4063;48.140;10.250;2023-10-08T11:42:53;8.00;;;3.70;;
8040;SDS011;4063;48.140;10.250;2023-10-08T11:45:21;9.63;;;4.22;;
8040;SDS011;4063;48.140;10.250;2023-10-08T11:48:03;14.25;;;5.15;;
8040;SDS011;4063;48.140;10.250;2023-10-08T11:50:36;11.25;;;4.90;;
8040;SDS011;4063;48.140;10.250;2023-10-08T11:53:03;16.35;;;5.40;;
8040;SDS011;4063;48.140;10.250;2023-10-08T11:55:34;12.20;;;4.78;;
8040;SDS011;4063;48.140;10.250;2023-10-08T11:58:07;11.77;;;5.05;;
8040;SDS011;4063;48.140;10.250;2023-10-08T12:00:40;9.43;;;4.60;;
8040;SDS011;4063;48.140;10.250;2023-10-08T12:03:12;10.65;;;4.72;;
8040;SDS011;4063;48.140;10.250;2023-10-08T12:05:43;8.88;;;4.68;;
8040;SDS011;4063;48.140;10.250;2023-10-08T12:08:12;6.35;;;4.03;;
8040;SDS011;4063;48.140;10.250;2023-10-08T12:10:39;14.40;;;4.72;;
8040;SDS011;4063;48.140;10.250;2023-10-08T12:13:06;11.13;;;4.70;;
8040;SDS011;4063;48.140;10.250;2023-10-08T12:15:34;8.25;;;4.40;;
8040;SDS011;4063;48.140;10.250;2023-10-08T12:18:03;9.52;;;4.43;;
8040;SDS011;4063;48.140;10.250;2023-10-08T12:20:48;11.20;;;4.43;;
8040;SDS011;4063;48.140;10.250;2023-10-08T12:23:14;10.10;;;4.53;;
8040;SDS011;4063;48.140;10.250;2023-10-08T12:25:50;7.97;;;4.28;;
8040;SDS011;4063;48.140;10.250;2023-10-08T12:28:17;9.55;;;4.10;;
8040;SDS011;4063;48.140;10.250;2023-10-08T12:30:44;8.60;;;4.35;;
8040;SDS011;4063;48.140;10.250;2023-10-08T12:33:10;9.70;;;3.80;;
8040;SDS011;4063;48.140;10.250;2023-10-08T12:35:40;14.07;;;4.32;;
8040;SDS011;4063;48.140;10.250;2023-10-08T12:38:06;12.20;;;4.40;;
8040;SDS011;4063;48.140;10.250;2023-10-08T12:40:34;7.20;;;4.53;;
8040;SDS011;4063;48.140;10.250;2023-10-08T12:43:24;6.95;;;4.32;;
8040;SDS011;4063;48.140;10.250;2023-10-08T12:45:53;14.50;;;4.80;;
8040;SDS011;4063;48.140;10.250;2023-10-08T12:48:25;9.38;;;5.00;;
8040;SDS011;4063;48.140;10.250;2023-10-08T12:50:52;6.72;;;4.28;;
8040;SDS011;4063;48.140;10.250;2023-10-08T12:53:19;9.95;;;3.97;;
8040;SDS011;4063;48.140;10.250;2023-10-08T12:55:49;8.45;;;4.45;;
8040;SDS011;4063;48.140;10.250;2023-10-08T12:58:18;12.70;;;4.68;;
8040;SDS011;4063;48.140;10.250;2023-10-08T13:00:44;9.75;;;4.40;;
8040;SDS011;4063;48.140;10.250;2023-10-08T13:03:14;10.55;;;4.30;;
8040;SDS011;4063;48.140;10.250;2023-10-08T13:05:47;9.48;;;4.10;;
8040;SDS011;4063;48.140;10.250;2023-10-08T13:08:17;14.25;;;4.20;;
8040;SDS011;4063;48.140;10.250;2023-10-08T13:10:44;13.57;;;4.63;;
8040;SDS011;4063;48.140;10.250;2023-10-08T13:13:10;13.70;;;4.22;;
8040;SDS011;4063;48.140;10.250;2023-10-08T13:15:37;13.07;;;4.75;;
8040;SDS011;4063;48.140;10.250;2023-10-08T13:18:03;14.32;;;5.55;;
8040;SDS011;4063;48.140;10.250;2023-10-08T13:20:30;17.98;;;5.25;;
8040;SDS011;4063;48.140;10.250;2023-10-08T13:23:00;11.75;;;5.50;;
8040;SDS011;4063;48.140;10.250;2023-10-08T13:25:26;12.50;;;4.95;;
8040;SDS011;4063;48.140;10.250;2023-10-08T13:27:52;11.55;;;4.72;;
8040;SDS011;4063;48.140;10.250;2023-10-08T13:30:19;11.02;;;5.40;;
8040;SDS011;4063;48.140;10.250;2023-10-08T13:32:46;11.50;;;4.30;;
8040;SDS011;4063;48.140;10.250;2023-10-08T13:35:12;10.38;;;4.60;;
8040;SDS011;4063;48.140;10.250;2023-10-08T13:37:38;10.43;;;5.05;;
8040;SDS011;4063;48.140;10.250;2023-10-08T13:40:05;7.53;;;4.03;;
8040;SDS011;4063;48.140;10.250;2023-10-08T13:42:32;13.38;;;5.18;;
8040;SDS011;4063;48.140;10.250;2023-10-08T13:44:57;13.95;;;4.28;;
8040;SDS011;4063;48.140;10.250;2023-10-08T13:47:24;10.10;;;4.18;;
8040;SDS011;4063;48.140;10.250;2023-10-08T13:49:53;10.55;;;4.72;;
8040;SDS011;4063;48.140;10.250;2023-10-08T13:52:20;11.95;;;6.22;;
8040;SDS011;4063;48.140;10.250;2023-10-08T13:54:46;8.98;;;4.43;;
8040;SDS011;4063;48.140;10.250;2023-10-08T13:57:17;13.35;;;4.40;;
8040;SDS011;4063;48.140;10.250;2023-10-08T13:59:44;8.88;;;3.95;;
8040;SDS011;4063;48.140;10.250;2023-10-08T14:02:11;10.25;;;4.20;;
8040;SDS011;4063;48.140;10.250;2023-10-08T14:04:44;11.55;;;4.18;;
8040;SDS011;4063;48.140;10.250;2023-10-08T14:07:11;10.48;;;5.13;;
8040;SDS011;4063;48.140;10.250;2023-10-08T14:09:41;17.23;;;4.53;;
8040;SDS011;4063;48.140;10.250;2023-10-08T14:12:07;11.43;;;4.35;;
8040;SDS011;4063;48.140;10.250;2023-10-08T14:14:35;13.57;;;3.95;;
8040;SDS011;4063;48.140;10.250;2023-10-08T14:17:06;11.75;;;4.10;;
8040;SDS011;4063;48.140;10.250;2023-10-08T14:19:32;8.45;;;4.70;;
8040;SDS011;4063;48.140;10.250;2023-10-08T14:22:24;10.85;;;4.20;;
8040;SDS011;4063;48.140;10.250;2023-10-08T14:24:51;7.57;;;3.97;;
8040;SDS011;4063;48.140;10.250;2023-10-08T14:27:26;11.35;;;3.70;;
8040;SDS011;4063;48.140;10.250;2023-10-08T14:30:05;13.10;;;4.07;;
8040;SDS011;4063;48.140;10.250;2023-10-08T14:32:40;12.52;;;4.53;;
8040;SDS011;4063;48.140;10.250;2023-10-08T14:35:10;10.73;;;4.05;;
8040;SDS011;4063;48.140;10.250;2023-10-08T14:37:54;14.43;;;4.40;;
8040;SDS011;4063;48.140;10.250;2023-10-08T14:40:39;11.35;;;4.75;;
8040;SDS011;4063;48.140;10.250;2023-10-08T14:43:23;7.25;;;3.75;;
8040;SDS011;4063;48.140;10.250;2023-10-08T14:45:50;9.48;;;4.00;;
8040;SDS011;4063;48.140;10.250;2023-10-08T14:48:17;12.77;;;3.88;;
8040;SDS011;4063;48.140;10.250;2023-10-08T14:50:43;11.38;;;4.40;;
8040;SDS011;4063;48.140;10.250;2023-10-08T14:53:11;9.55;;;4.50;;
8040;SDS011;4063;48.140;10.250;2023-10-08T14:55:37;10.27;;;4.70;;
8040;SDS011;4063;48.140;10.250;2023-10-08T14:58:04;9.38;;;4.57;;
8040;SDS011;4063;48.140;10.250;2023-10-08T15:00:34;11.25;;;4.80;;
8040;SDS011;4063;48.140;10.250;2023-10-08T15:03:03;14.88;;;4.97;;
8040;SDS011;4063;48.140;10.250;2023-10-08T15:05:29;11.38;;;3.97;;
8040;SDS011;4063;48.140;10.250;2023-10-08T15:07:56;11.73;;;4.68;;
8040;SDS011;4063;48.140;10.250;2023-10-08T15:10:22;14.30;;;4.18;;
8040;SDS011;4063;48.140;10.250;2023-10-08T15:12:48;13.80;;;4.45;;
8040;SDS011;4063;48.140;10.250;2023-10-08T15:15:17;14.95;;;4.63;;
8040;SDS011;4063;48.140;10.250;2023-10-08T15:17:43;11.63;;;4.78;;
8040;SDS011;4063;48.140;10.250;2023-10-08T15:20:10;14.70;;;4.82;;
8040;SDS011;4063;48.140;10.250;2023-10-08T15:22:41;11.07;;;4.10;;
8040;SDS011;4063;48.140;10.250;2023-10-08T15:25:08;15.68;;;4.40;;